createdAt,value
2018-09-08T00:02:03.174Z,67.57
2018-09-08T00:04:29.932Z,68.20
2018-09-08T00:06:56.625Z,67.17
2018-09-08T00:09:24.647Z,66.62
2018-09-08T00:11:51.439Z,65.83
2018-09-08T00:14:18.098Z,66.00
2018-09-08T00:16:46.154Z,66.42
2018-09-08T00:19:12.920Z,65.90
2018-09-08T00:21:40.539Z,65.92
2018-09-08T00:24:07.376Z,66.61
2018-09-08T00:26:33.992Z,66.90
2018-09-08T00:29:01.195Z,66.75
2018-09-08T00:36:44.722Z,65.82
2018-09-08T00:39:11.793Z,65.95
2018-09-08T00:41:39.694Z,66.12
2018-09-08T00:44:09.439Z,66.17
2018-09-08T00:46:36.145Z,65.90
2018-09-08T00:49:02.752Z,66.35
2018-09-08T00:51:30.889Z,66.58
2018-09-08T00:53:58.574Z,66.05
2018-09-08T00:56:25.645Z,66.88
2018-09-08T00:58:52.873Z,67.28
2018-09-08T01:01:19.881Z,66.45
2018-09-08T01:03:48.360Z,63.10
2018-09-08T01:08:48.086Z,64.14
2018-09-08T01:11:15.757Z,65.50
2018-09-08T01:13:44.714Z,65.75
2018-09-08T01:16:12.384Z,65.55
2018-09-08T01:18:39.558Z,66.46
2018-09-08T01:21:08.793Z,67.22
2018-09-08T01:23:37.197Z,66.54
2018-09-08T01:26:05.498Z,66.32
2018-09-08T01:28:33.546Z,65.83
2018-09-08T01:31:01.283Z,65.11
2018-09-08T01:33:28.868Z,66.27
2018-09-08T01:35:56.586Z,66.71
2018-09-08T01:40:54.935Z,67.82
2018-09-08T01:43:24.356Z,66.51
2018-09-08T01:45:52.898Z,66.59
2018-09-08T01:50:56.152Z,67.68
2018-09-08T01:53:23.853Z,66.66
2018-09-08T01:55:52.681Z,67.39
2018-09-08T01:58:20.938Z,66.78
2018-09-08T02:00:49.030Z,66.54
2018-09-08T02:03:17.690Z,66.56
2018-09-08T02:08:19.163Z,67.76
2018-09-08T02:10:49.055Z,67.37
2018-09-08T02:13:21.148Z,66.61
2018-09-08T02:15:49.351Z,66.40
2018-09-08T02:18:17.809Z,66.78
2018-09-08T02:23:20.527Z,66.60
2018-09-08T02:25:49.207Z,66.30
2018-09-08T02:28:18.315Z,65.96
2018-09-08T02:30:47.645Z,65.31
2018-09-08T02:33:16.640Z,65.43
2018-09-08T02:38:23.148Z,65.81
2018-09-08T02:40:51.689Z,66.35
2018-09-08T02:48:25.663Z,65.93
2018-09-08T02:50:55.589Z,64.76
2018-09-08T02:53:23.953Z,65.18
2018-09-08T02:58:26.497Z,65.27
2018-09-08T03:03:28.477Z,66.11
2018-09-08T03:08:34.119Z,66.75
2018-09-08T03:11:04.088Z,66.97
2018-09-08T03:13:33.116Z,67.29
2018-09-08T03:16:00.342Z,67.38
2018-09-08T03:18:28.909Z,67.34
2018-09-08T03:20:59.264Z,66.78
2018-09-08T03:23:30.494Z,67.26
2018-09-08T03:28:30.679Z,68.04
2018-09-08T03:31:00.481Z,66.48
2018-09-08T03:33:31.045Z,66.59
2018-09-08T03:35:59.721Z,67.15
2018-09-08T03:38:29.160Z,67.84
2018-09-08T03:41:00.378Z,67.45
2018-09-08T03:43:30.992Z,66.75
2018-09-08T03:46:00.108Z,66.28
2018-09-08T03:51:00.136Z,67.43
2018-09-08T03:53:30.619Z,67.96
2018-09-08T03:56:04.045Z,68.08
2018-09-08T03:58:34.623Z,67.83
2018-09-08T04:01:02.689Z,67.79
2018-09-08T04:03:35.946Z,66.82
2018-09-08T04:11:09.752Z,65.55
2018-09-08T04:13:41.122Z,65.73
2018-09-08T04:16:15.956Z,66.33
2018-09-08T04:21:17.611Z,68.09
2018-09-08T04:23:48.684Z,67.50
2018-09-08T04:31:25.927Z,65.76
2018-09-08T04:33:55.362Z,65.95
2018-09-08T04:36:22.875Z,65.75
2018-09-08T04:38:52.277Z,66.56
2018-09-08T04:41:23.542Z,65.87
2018-09-08T04:43:51.762Z,65.47
2018-09-08T04:46:21.379Z,65.59
2018-09-08T04:48:49.874Z,65.41
2018-09-08T04:51:19.632Z,65.21
2018-09-08T04:53:52.727Z,65.61
2018-09-08T04:56:23.625Z,66.72
2018-09-08T04:58:51.364Z,66.88
2018-09-08T05:01:18.983Z,66.82
2018-09-08T05:03:47.904Z,67.08
2018-09-08T05:06:20.561Z,66.01
2018-09-08T05:08:50.097Z,65.89
2018-09-08T05:11:19.347Z,66.05
2018-09-08T05:13:47.185Z,64.51
2018-09-08T05:16:15.404Z,65.64
2018-09-08T05:21:17.726Z,65.84
2018-09-08T05:23:49.099Z,66.04
2018-09-08T05:31:28.047Z,67.00
2018-09-08T05:36:29.167Z,66.40
2018-09-08T05:38:57.961Z,65.73
2018-09-08T05:43:56.536Z,66.61
2018-09-08T05:46:25.725Z,66.11
2018-09-08T05:48:56.860Z,66.82
2018-09-08T05:51:28.546Z,65.33
2018-09-08T05:53:57.284Z,65.28
2018-09-08T05:56:32.509Z,65.29
2018-09-08T06:01:38.900Z,65.07
2018-09-08T06:06:41.590Z,65.44
2018-09-08T06:09:09.673Z,65.25
2018-09-08T06:11:39.844Z,66.21
2018-09-08T06:14:13.431Z,64.87
2018-09-08T06:16:48.808Z,65.22
2018-09-08T06:19:21.936Z,65.80
2018-09-08T06:21:53.524Z,65.31
2018-09-08T06:24:22.598Z,65.57
2018-09-08T06:26:50.967Z,64.91
2018-09-08T06:29:24.034Z,63.86
2018-09-08T06:31:54.181Z,62.86
2018-09-08T06:34:21.475Z,63.23
2018-09-08T06:36:49.313Z,64.55
2018-09-08T06:39:19.694Z,63.54
2018-09-08T06:41:53.493Z,64.11
2018-09-08T06:44:25.067Z,63.71
2018-09-08T06:46:52.940Z,64.42
2018-09-08T06:51:53.648Z,63.70
2018-09-08T06:54:21.739Z,62.52
2018-09-08T06:56:51.450Z,63.78
2018-09-08T06:59:19.448Z,64.18
2018-09-08T07:01:47.535Z,63.82
2018-09-08T07:04:16.075Z,62.31
2018-09-08T07:06:45.945Z,62.12
2018-09-08T07:09:18.085Z,61.22
2018-09-08T07:11:48.500Z,62.21
2018-09-08T07:14:19.857Z,61.84
2018-09-08T07:16:51.113Z,61.10
2018-09-08T07:19:20.654Z,61.61
2018-09-08T07:21:50.012Z,61.29
2018-09-08T07:29:30.452Z,61.09
2018-09-08T07:32:00.307Z,59.61
2018-09-08T07:34:28.819Z,60.62
2018-09-08T07:39:37.030Z,58.75
2018-09-08T07:42:06.506Z,59.05
2018-09-08T07:49:38.395Z,58.80
2018-09-08T07:52:10.442Z,58.36
2018-09-08T07:59:47.789Z,59.60
2018-09-08T08:02:18.872Z,56.96
2018-09-08T08:04:48.668Z,55.71
2018-09-08T08:07:20.340Z,54.73
2018-09-08T08:09:51.713Z,55.85
2018-09-08T08:12:22.772Z,56.16
2018-09-08T08:14:54.056Z,53.63
2018-09-08T08:17:23.346Z,51.96
2018-09-08T08:22:30.478Z,53.36
2018-09-08T08:24:59.666Z,53.22
2018-09-08T08:29:59.434Z,52.78
2018-09-08T08:32:28.229Z,51.41
2018-09-08T08:42:38.498Z,52.00
2018-09-08T08:45:09.939Z,50.81
2018-09-08T08:47:40.926Z,49.75
2018-09-08T08:55:21.100Z,49.96
2018-09-08T08:57:50.504Z,49.98
2018-09-08T09:02:52.582Z,47.61
2018-09-08T09:07:56.096Z,44.39
2018-09-08T09:10:27.872Z,43.92
2018-09-08T09:15:32.878Z,45.12
2018-09-08T09:18:02.767Z,44.80
2018-09-08T09:20:34.875Z,44.00
2018-09-08T09:23:02.925Z,42.77
2018-09-08T09:25:31.309Z,43.09
2018-09-08T09:27:59.544Z,42.42
2018-09-08T09:35:34.170Z,42.71
2018-09-08T09:43:14.591Z,41.40
2018-09-08T09:50:55.305Z,42.22
2018-09-08T09:55:57.651Z,41.03
2018-09-08T09:58:27.210Z,39.57
2018-09-08T10:00:55.884Z,37.44
2018-09-08T10:11:09.316Z,36.48
2018-09-08T10:18:41.223Z,36.75
2018-09-08T10:24:04.350Z,37.28
2018-09-08T10:28:49.834Z,36.11
2018-09-08T10:31:20.141Z,36.36
2018-09-08T10:44:05.513Z,38.33
2018-09-08T10:49:15.100Z,39.75
2018-09-08T10:51:44.440Z,37.00
2018-09-08T10:54:14.767Z,36.85
2018-09-08T10:56:44.513Z,36.36
2018-09-08T11:01:55.847Z,36.31
2018-09-08T11:04:25.158Z,40.18
2018-09-08T11:14:37.839Z,41.67
2018-09-08T11:24:58.110Z,39.39
2018-09-08T11:32:41.004Z,40.01
2018-09-08T11:35:13.025Z,40.60
2018-09-08T11:37:41.690Z,39.11
2018-09-08T11:42:47.632Z,41.07
2018-09-08T11:53:06.086Z,39.41
2018-09-08T12:00:42.998Z,41.57
2018-09-08T12:05:49.859Z,39.43
2018-09-08T12:10:57.036Z,39.23
2018-09-08T12:13:27.332Z,37.70
2018-09-08T12:15:57.648Z,37.63
2018-09-08T12:21:01.955Z,38.14
2018-09-08T12:23:32.775Z,39.92
2018-09-08T12:26:02.093Z,40.12
2018-09-08T12:31:14.837Z,42.04
2018-09-08T12:33:48.584Z,43.24
2018-09-08T12:41:27.020Z,36.41
2018-09-08T12:49:09.640Z,39.67
2018-09-08T12:54:11.162Z,37.23
2018-09-08T12:56:42.359Z,39.13
2018-09-08T13:01:51.951Z,37.50
2018-09-08T13:06:53.127Z,38.90
2018-09-08T13:09:24.491Z,37.98
2018-09-08T13:11:52.633Z,37.14
2018-09-08T13:14:30.050Z,37.61
2018-09-08T13:19:41.562Z,35.20
2018-09-08T13:22:10.352Z,36.54
2018-09-08T13:24:43.244Z,34.06
2018-09-08T13:34:56.024Z,34.02
2018-09-08T13:37:30.507Z,33.78
2018-09-08T13:40:02.741Z,32.58
2018-09-08T13:42:34.634Z,31.14
2018-09-08T13:45:05.540Z,32.85
2018-09-08T13:47:34.831Z,32.58
2018-09-08T13:50:03.464Z,31.81
2018-09-08T13:52:34.475Z,31.33
2018-09-08T13:55:08.006Z,33.16
2018-09-08T13:57:36.474Z,32.62
2018-09-08T14:05:20.134Z,33.84
2018-09-08T14:07:51.410Z,32.85
2018-09-08T14:20:51.094Z,32.40
2018-09-08T14:23:18.944Z,34.39
2018-09-08T14:25:47.108Z,34.96
2018-09-08T14:28:16.957Z,35.41
2018-09-08T14:30:47.394Z,34.56
2018-09-08T14:38:32.951Z,30.90
2018-09-08T14:46:06.392Z,32.85
2018-09-08T14:51:10.342Z,33.48
2018-09-08T14:56:15.031Z,34.84
2018-09-08T14:58:42.888Z,34.64
2018-09-08T15:06:34.971Z,35.21
2018-09-08T15:09:06.771Z,32.95
2018-09-08T15:14:09.316Z,32.94
2018-09-08T15:24:42.359Z,36.22
2018-09-08T15:27:10.112Z,36.94
2018-09-08T15:29:40.995Z,39.33
2018-09-08T15:32:07.647Z,40.30
2018-09-08T15:34:38.401Z,38.66
2018-09-08T15:37:06.316Z,40.79
2018-09-08T15:39:36.260Z,41.10
2018-09-08T15:44:43.585Z,41.76
2018-09-08T15:47:12.714Z,41.96
2018-09-08T16:00:25.718Z,43.32
2018-09-08T16:02:55.962Z,42.86
2018-09-08T16:05:26.479Z,41.21
2018-09-08T16:10:31.554Z,42.57
2018-09-08T16:12:59.304Z,43.73
2018-09-08T16:18:15.960Z,43.18
2018-09-08T16:23:18.704Z,42.48
2018-09-08T16:25:53.237Z,43.17
2018-09-08T16:28:21.715Z,44.10
2018-09-08T16:30:55.486Z,43.46
2018-09-08T16:33:23.592Z,44.06
2018-09-08T16:35:59.573Z,44.79
2018-09-08T16:38:31.142Z,44.73
2018-09-08T16:41:02.173Z,45.09
2018-09-08T16:43:30.506Z,45.08
2018-09-08T16:45:59.671Z,44.68
2018-09-08T16:48:29.076Z,46.20
2018-09-08T16:50:59.525Z,46.28
2018-09-08T16:58:37.447Z,46.23
2018-09-08T17:01:07.728Z,46.74
2018-09-08T17:03:36.736Z,45.46
2018-09-08T17:06:07.783Z,47.06
2018-09-08T17:08:38.700Z,45.83
2018-09-08T17:16:31.828Z,48.53
2018-09-08T17:21:34.658Z,49.56
2018-09-08T17:24:05.579Z,50.17
2018-09-08T17:26:35.323Z,50.48
2018-09-08T17:36:44.407Z,49.80
2018-09-08T17:39:15.172Z,50.96
2018-09-08T17:41:45.714Z,49.79
2018-09-08T17:44:17.108Z,50.42
2018-09-08T17:46:46.283Z,51.30
2018-09-08T17:49:20.938Z,50.43
2018-09-08T17:51:50.523Z,51.14
2018-09-08T17:54:21.850Z,51.19
2018-09-08T17:59:25.174Z,52.45
2018-09-08T18:04:26.063Z,52.78
2018-09-08T18:06:54.547Z,53.12
2018-09-08T18:09:24.137Z,53.80
2018-09-08T18:11:53.120Z,53.08
2018-09-08T18:16:58.186Z,54.28
2018-09-08T18:19:28.582Z,53.48
2018-09-08T18:21:57.151Z,54.36
2018-09-08T18:24:28.202Z,54.97
2018-09-08T18:29:29.013Z,54.94
2018-09-08T18:32:00.374Z,55.07
2018-09-08T18:34:31.172Z,56.17
2018-09-08T18:36:59.982Z,56.36
2018-09-08T18:39:30.224Z,56.35
2018-09-08T18:41:59.680Z,57.51
2018-09-08T18:44:28.631Z,56.78
2018-09-08T18:47:00.423Z,57.10
2018-09-08T18:49:31.301Z,57.80
2018-09-08T18:52:00.559Z,57.76
2018-09-08T18:54:29.520Z,57.17
2018-09-08T18:56:58.682Z,56.65
2018-09-08T18:59:28.739Z,57.03
2018-09-08T19:01:58.352Z,58.05
2018-09-08T19:04:27.750Z,57.21
2018-09-08T19:07:00.596Z,57.77
2018-09-08T19:09:29.962Z,57.74
2018-09-08T19:11:59.634Z,58.49
2018-09-08T19:14:29.230Z,58.54
2018-09-08T19:17:00.416Z,58.12
2018-09-08T19:19:34.221Z,59.22
2018-09-08T19:22:08.844Z,58.72
2018-09-08T19:27:13.215Z,59.46
2018-09-08T19:32:18.439Z,59.05
2018-09-08T19:34:53.370Z,58.05
2018-09-08T19:40:05.041Z,58.91
2018-09-08T19:42:33.376Z,59.41
2018-09-08T19:45:02.717Z,60.14
2018-09-08T19:47:30.443Z,59.88
2018-09-08T19:57:36.546Z,60.22
2018-09-08T20:02:39.639Z,60.09
2018-09-08T20:05:07.100Z,59.84
2018-09-08T20:07:36.228Z,59.63
2018-09-08T20:10:04.152Z,60.62
2018-09-08T20:12:32.595Z,60.81
2018-09-08T20:15:02.851Z,60.31
2018-09-08T20:17:30.274Z,60.60
2018-09-08T20:20:00.734Z,60.95
2018-09-08T20:25:03.522Z,60.03
2018-09-08T20:27:31.984Z,60.63
2018-09-08T20:30:04.451Z,60.43
2018-09-08T20:35:07.966Z,60.73
2018-09-08T20:37:36.382Z,60.90
2018-09-08T20:40:07.365Z,62.33
2018-09-08T20:42:38.270Z,61.56
2018-09-08T20:45:05.817Z,62.17
2018-09-08T20:47:34.028Z,62.24
2018-09-08T20:50:01.864Z,61.90
2018-09-08T20:52:33.960Z,61.52
2018-09-08T20:55:02.129Z,61.98
2018-09-08T20:57:29.048Z,61.89
2018-09-08T20:59:58.859Z,62.53
2018-09-08T21:02:27.748Z,62.20
2018-09-08T21:04:56.743Z,62.04
2018-09-08T21:07:25.595Z,62.27
2018-09-08T21:09:53.210Z,62.48
2018-09-08T21:12:23.594Z,62.28
2018-09-08T21:14:51.665Z,61.58
2018-09-08T21:17:22.365Z,61.82
2018-09-08T21:19:54.413Z,63.10
2018-09-08T21:22:24.129Z,63.15
2018-09-08T21:24:52.114Z,62.64
2018-09-08T21:27:22.087Z,61.91
2018-09-08T21:29:54.468Z,62.00
2018-09-08T21:32:25.867Z,61.26
2018-09-08T21:34:59.439Z,61.70
2018-09-08T21:37:32.880Z,61.84
2018-09-08T21:40:01.194Z,62.46
2018-09-08T21:42:31.463Z,62.06
2018-09-08T21:45:03.315Z,61.85
2018-09-08T21:47:30.916Z,61.65
2018-09-08T21:50:01.157Z,61.95
2018-09-08T21:52:29.856Z,61.88
2018-09-08T21:57:31.795Z,62.14
2018-09-08T22:00:02.428Z,62.36
2018-09-08T22:02:32.088Z,62.62
2018-09-08T22:10:06.432Z,63.93
2018-09-08T22:17:40.370Z,62.61
2018-09-08T22:25:14.151Z,62.30
2018-09-08T22:30:23.194Z,62.44
2018-09-08T22:32:56.956Z,62.88
2018-09-08T22:35:35.060Z,62.79
2018-09-08T22:40:43.536Z,62.63
2018-09-08T22:43:12.447Z,62.66
2018-09-08T22:48:21.345Z,63.25
2018-09-08T22:50:53.972Z,63.55
2018-09-08T22:53:24.204Z,63.16
2018-09-08T22:58:29.570Z,63.06
2018-09-08T23:01:01.738Z,63.25
2018-09-08T23:03:32.451Z,62.56
2018-09-08T23:08:35.028Z,62.30
2018-09-08T23:11:04.424Z,63.28
2018-09-08T23:13:34.687Z,63.18
2018-09-08T23:16:07.578Z,62.90
2018-09-08T23:21:21.432Z,63.88
2018-09-08T23:26:26.236Z,63.59
2018-09-08T23:28:54.928Z,63.25
2018-09-08T23:44:04.120Z,64.31
2018-09-08T23:49:09.466Z,64.71
2018-09-08T23:54:14.387Z,63.53
2018-09-08T23:56:43.892Z,63.83
2018-09-08T23:59:12.555Z,64.56
